Time;durP1;ratioP1;P1;durP2;ratioP2;P2;SDS_P1;SDS_P2;PMS_P1;PMS_P2;Temp;Humidity;BMP_temperature;BMP_pressure;BME280_temperature;BME280_humidity;BME280_pressure;Samples;Min_cycle;Max_cycle;Signal;HPM_P1;HPM_P2
2022/10/03 00:03:20;;;;;;;24.93;12.20;;;9.10;99.90;;;;;;4324249;28;657859;-68
2022/10/03 00:06:10;;;;;;;27.90;13.77;;;9.10;99.90;;;;;;4324541;28;658143;-69
2022/10/03 00:09:09;;;;;;;24.73;13.03;;;9.10;99.90;;;;;;4338881;28;659518;-69
2022/10/03 00:12:15;;;;;;;30.13;13.77;;;9.10;99.90;;;;;;4323914;28;658238;-68
2022/10/03 00:15:06;;;;;;;27.20;13.87;;;9.00;99.90;;;;;;4340014;28;657707;-69
2022/10/03 00:18:01;;;;;;;29.03;13.00;;;9.00;99.90;;;;;;4342759;28;658492;-68
2022/10/03 00:21:01;;;;;;;35.47;13.87;;;9.00;99.90;;;;;;4347975;28;658408;-68
2022/10/03 00:23:51;;;;;;;22.17;11.47;;;9.00;99.90;;;;;;4347049;28;658289;-69
2022/10/03 00:26:42;;;;;;;29.87;13.20;;;9.10;99.90;;;;;;4351585;28;658819;-69
2022/10/03 00:29:40;;;;;;;19.93;9.67;;;9.00;99.90;;;;;;4346203;28;658011;-68
2022/10/03 00:32:39;;;;;;;30.83;13.23;;;9.10;99.90;;;;;;4348964;28;657053;-69
2022/10/03 00:35:35;;;;;;;21.07;9.53;;;9.00;99.90;;;;;;4336897;28;658353;-68
2022/10/03 00:38:54;;;;;;;27.25;12.98;;;9.00;99.90;;;;;;4328418;28;657441;-68
2022/10/03 00:42:07;;;;;;;24.50;12.23;;;9.00;99.90;;;;;;4327557;28;658529;-68
2022/10/03 00:45:34;;;;;;;30.67;12.23;;;9.00;99.90;;;;;;4370150;28;657807;-68
2022/10/03 00:48:37;;;;;;;21.83;11.70;;;9.00;99.90;;;;;;4329197;28;658100;-68
2022/10/03 00:51:34;;;;;;;23.23;11.60;;;9.10;99.90;;;;;;4349721;28;657536;-68
2022/10/03 00:54:32;;;;;;;22.83;11.73;;;9.00;99.90;;;;;;4326544;28;659085;-68
2022/10/03 00:57:26;;;;;;;18.77;9.33;;;9.10;99.90;;;;;;4345762;28;657404;-68
2022/10/03 01:00:16;;;;;;;21.57;9.80;;;9.10;99.90;;;;;;4351595;28;657134;-68
2022/10/03 01:03:22;;;;;;;24.27;11.50;;;9.00;99.90;;;;;;4353087;28;657895;-68
2022/10/03 01:06:20;;;;;;;25.70;10.67;;;9.00;99.90;;;;;;4349935;28;657680;-68
2022/10/03 01:09:17;;;;;;;22.57;10.77;;;9.10;99.90;;;;;;4332301;28;659313;-68
2022/10/03 01:12:27;;;;;;;22.77;11.63;;;9.00;99.90;;;;;;4350443;28;658039;-68
2022/10/03 01:15:19;;;;;;;26.07;11.90;;;9.00;99.90;;;;;;4353108;28;658114;-68
2022/10/03 01:18:22;;;;;;;23.90;13.70;;;8.90;99.90;;;;;;4358431;28;658490;-68
2022/10/03 01:21:14;;;;;;;36.38;15.35;;;8.90;99.90;;;;;;4352154;28;657974;-68
2022/10/03 01:24:27;;;;;;;29.33;15.07;;;8.90;99.90;;;;;;4324816;28;658153;-69
2022/10/03 01:27:15;;;;;;;35.10;14.53;;;9.00;99.90;;;;;;4349901;28;658626;-68
2022/10/03 01:30:21;;;;;;;28.95;15.13;;;9.00;99.90;;;;;;4350674;28;657916;-68
2022/10/03 01:33:10;;;;;;;25.63;12.77;;;9.00;99.90;;;;;;4349965;28;658494;-68
2022/10/03 01:36:02;;;;;;;29.60;14.63;;;9.10;99.90;;;;;;4354857;28;657684;-68
2022/10/03 01:38:56;;;;;;;27.57;15.33;;;9.10;99.90;;;;;;4347397;28;658535;-68
2022/10/03 01:41:48;;;;;;;32.20;15.60;;;9.10;99.90;;;;;;4344687;28;657744;-68
2022/10/03 01:44:41;;;;;;;31.60;16.80;;;9.10;99.90;;;;;;4331578;28;657654;-68
2022/10/03 01:47:31;;;;;;;27.57;12.97;;;9.10;99.90;;;;;;4349647;28;659318;-68
2022/10/03 01:50:24;;;;;;;26.20;15.17;;;9.20;99.90;;;;;;4348910;28;657903;-68
2022/10/03 01:53:12;;;;;;;25.53;13.20;;;9.10;99.90;;;;;;4332101;28;658821;-68
2022/10/03 01:56:02;;;;;;;31.13;13.20;;;9.20;99.90;;;;;;4371916;28;658173;-68
2022/10/03 01:58:55;;;;;;;31.17;13.90;;;9.20;99.90;;;;;;4350871;28;657395;-68
2022/10/03 02:01:47;;;;;;;23.80;11.97;;;9.20;99.90;;;;;;4325631;28;658297;-68
2022/10/03 02:04:42;;;;;;;31.43;14.77;;;9.20;99.90;;;;;;4352517;28;657487;-68
2022/10/03 02:07:34;;;;;;;31.23;14.17;;;9.20;99.90;;;;;;4350393;28;658015;-68
2022/10/03 02:10:26;;;;;;;23.48;13.18;;;9.20;99.90;;;;;;4328079;28;658453;-68
2022/10/03 02:13:15;;;;;;;26.17;12.30;;;9.20;99.90;;;;;;4353394;28;657819;-68
2022/10/03 02:16:06;;;;;;;24.10;12.93;;;9.20;99.90;;;;;;4353004;28;658228;-68
2022/10/03 02:18:55;;;;;;;28.60;13.17;;;9.20;99.90;;;;;;4350478;28;657695;-68
2022/10/03 02:21:48;;;;;;;32.00;13.52;;;9.30;99.90;;;;;;4349932;28;658042;-68
2022/10/03 02:24:42;;;;;;;29.33;13.00;;;9.20;99.90;;;;;;4332663;28;657526;-68
2022/10/03 02:27:49;;;;;;;24.27;12.70;;;9.30;99.90;;;;;;4352402;28;658194;-68
2022/10/03 02:30:40;;;;;;;23.80;12.30;;;9.20;99.90;;;;;;4329746;28;658973;-69
2022/10/03 02:34:03;;;;;;;26.43;12.50;;;9.20;99.90;;;;;;4345427;28;659378;-68
2022/10/03 02:37:07;;;;;;;25.97;12.53;;;9.20;99.90;;;;;;4313477;28;658206;-68
2022/10/03 02:40:31;;;;;;;24.00;13.13;;;9.30;99.90;;;;;;4332449;28;657201;-68
2022/10/03 02:43:31;;;;;;;26.03;11.80;;;9.20;99.90;;;;;;4335264;28;659596;-68
2022/10/03 02:46:57;;;;;;;23.97;13.50;;;9.30;99.90;;;;;;4333590;28;658991;-68
2022/10/03 02:50:22;;;;;;;27.97;13.63;;;9.20;99.90;;;;;;4324251;28;657891;-68
2022/10/03 02:53:41;;;;;;;24.73;12.63;;;9.20;99.90;;;;;;4332311;28;657486;-68
2022/10/03 02:57:04;;;;;;;27.57;13.17;;;9.30;99.90;;;;;;4338156;28;658828;-69
2022/10/03 03:00:04;;;;;;;27.90;14.87;;;9.20;99.90;;;;;;4332974;28;658558;-68
2022/10/03 03:03:25;;;;;;;27.03;16.13;;;9.30;99.90;;;;;;4315933;28;657863;-68
2022/10/03 03:06:45;;;;;;;26.10;14.17;;;9.30;99.90;;;;;;4327570;28;658329;-68
2022/10/03 03:10:00;;;;;;;30.90;13.47;;;9.30;99.90;;;;;;4336632;28;657739;-68
2022/10/03 03:13:27;;;;;;;26.30;13.17;;;9.30;99.90;;;;;;4338125;28;658568;-68
2022/10/03 03:16:31;;;;;;;22.13;10.90;;;9.30;99.90;;;;;;4332049;28;657910;-68
2022/10/03 03:19:51;;;;;;;17.50;7.03;;;9.30;99.90;;;;;;4334784;28;658878;-69
2022/10/03 03:22:47;;;;;;;20.23;9.70;;;9.30;99.90;;;;;;4332114;28;657400;-68
2022/10/03 03:25:43;;;;;;;23.97;10.00;;;9.30;99.90;;;;;;4336459;28;656644;-68
2022/10/03 03:28:35;;;;;;;23.37;11.10;;;9.30;99.90;;;;;;4338542;28;657849;-68
2022/10/03 03:31:25;;;;;;;15.63;8.57;;;9.30;99.90;;;;;;4337660;28;658466;-67
2022/10/03 03:34:14;;;;;;;19.90;8.40;;;9.30;99.90;;;;;;4324747;28;658274;-68
2022/10/03 03:37:04;;;;;;;18.80;7.43;;;9.20;99.90;;;;;;4346765;28;656775;-67
2022/10/03 03:40:00;;;;;;;29.17;10.57;;;9.30;99.90;;;;;;4334626;28;656675;-68
2022/10/03 03:43:07;;;;;;;22.07;10.33;;;9.20;99.90;;;;;;4310335;28;658844;-68
2022/10/03 03:46:05;;;;;;;20.43;9.27;;;9.30;99.90;;;;;;4333270;28;657554;-68
2022/10/03 03:49:01;;;;;;;16.23;8.20;;;9.30;99.90;;;;;;4312284;28;657275;-68
2022/10/03 03:51:53;;;;;;;18.83;9.30;;;9.30;99.90;;;;;;4332276;28;657251;-68
2022/10/03 03:54:56;;;;;;;18.50;8.67;;;9.30;99.90;;;;;;4314692;28;657472;-68
2022/10/03 03:57:56;;;;;;;19.97;9.20;;;9.30;99.90;;;;;;4333577;28;657499;-68
2022/10/03 04:00:55;;;;;;;24.53;9.27;;;9.30;99.90;;;;;;4333303;28;657352;-68
2022/10/03 04:03:50;;;;;;;20.50;8.03;;;9.30;99.90;;;;;;4316847;28;657909;-67
2022/10/03 04:06:45;;;;;;;16.40;7.93;;;9.30;99.90;;;;;;4332364;28;657147;-68
2022/10/03 04:09:56;;;;;;;14.00;8.20;;;9.30;99.90;;;;;;4312044;28;658074;-68
2022/10/03 04:12:54;;;;;;;22.90;8.53;;;9.40;99.90;;;;;;4335823;28;656487;-68
2022/10/03 04:15:59;;;;;;;15.60;8.80;;;9.30;99.90;;;;;;4339655;28;656802;-68
2022/10/03 04:18:58;;;;;;;18.17;8.07;;;9.20;99.90;;;;;;4314801;28;656680;-68
2022/10/03 04:21:58;;;;;;;21.43;8.13;;;9.30;99.90;;;;;;4312568;28;657153;-67
2022/10/03 04:25:06;;;;;;;19.47;8.80;;;9.30;99.90;;;;;;4322527;28;657303;-68
2022/10/03 04:28:13;;;;;;;22.93;8.97;;;9.30;99.90;;;;;;4329207;28;656623;-68
2022/10/03 04:31:09;;;;;;;18.80;8.43;;;9.30;99.90;;;;;;4332766;28;656667;-68
2022/10/03 04:34:05;;;;;;;12.67;5.60;;;9.40;99.90;;;;;;4328825;28;656556;-67
2022/10/03 04:37:23;;;;;;;21.37;8.37;;;9.40;99.90;;;;;;4312449;28;657667;-68
2022/10/03 04:40:18;;;;;;;21.00;9.90;;;9.30;99.90;;;;;;4320289;28;657693;-68
2022/10/03 04:43:09;;;;;;;22.70;10.03;;;9.30;99.90;;;;;;4337078;28;657529;-68
2022/10/03 04:46:10;;;;;;;17.80;9.57;;;9.30;99.90;;;;;;4354283;28;657501;-68
2022/10/03 04:49:02;;;;;;;30.70;14.13;;;9.30;99.90;;;;;;4331020;28;656496;-68
2022/10/03 04:51:52;;;;;;;35.43;15.93;;;9.20;99.90;;;;;;4356217;28;657019;-68
2022/10/03 04:54:47;;;;;;;29.23;14.90;;;9.10;99.90;;;;;;4371879;28;658168;-68
2022/10/03 04:57:36;;;;;;;21.97;12.03;;;9.20;99.90;;;;;;4350030;28;657760;-68
2022/10/03 05:00:27;;;;;;;31.13;13.30;;;9.20;99.90;;;;;;4350143;28;657626;-68
2022/10/03 05:03:19;;;;;;;32.20;11.97;;;9.20;99.90;;;;;;4350387;28;657521;-68
2022/10/03 05:06:10;;;;;;;22.20;10.20;;;9.10;99.90;;;;;;4349373;28;658314;-68
2022/10/03 05:09:00;;;;;;;18.43;8.07;;;9.20;99.90;;;;;;4348408;28;659134;-68
2022/10/03 05:11:53;;;;;;;17.63;9.52;;;9.20;99.90;;;;;;4354076;28;656674;-69
2022/10/03 05:14:49;;;;;;;23.30;10.37;;;9.10;99.90;;;;;;4352576;28;657106;-68
2022/10/03 05:17:45;;;;;;;22.60;10.70;;;9.00;99.90;;;;;;4355734;28;657521;-68
2022/10/03 05:20:41;;;;;;;25.57;10.33;;;9.00;99.90;;;;;;4329228;28;657722;-68
2022/10/03 05:23:33;;;;;;;17.43;7.60;;;9.10;99.90;;;;;;4351736;28;658350;-68
2022/10/03 05:26:24;;;;;;;21.03;10.37;;;9.10;99.90;;;;;;4336222;28;656737;-68
2022/10/03 05:29:17;;;;;;;21.73;10.20;;;9.10;99.90;;;;;;4351689;28;657479;-68
2022/10/03 05:32:12;;;;;;;25.70;10.50;;;9.10;99.90;;;;;;4343334;28;658059;-68
2022/10/03 05:35:25;;;;;;;20.07;10.10;;;9.10;99.90;;;;;;4333892;28;657418;-68
2022/10/03 05:38:25;;;;;;;9.13;4.23;;;9.10;99.90;;;;;;4325260;28;658141;-67
2022/10/03 05:41:19;;;;;;;11.70;5.87;;;9.10;99.90;;;;;;4324509;28;657555;-67
2022/10/03 05:44:09;;;;;;;20.42;8.38;;;9.10;99.90;;;;;;4323226;28;657999;-67
2022/10/03 05:46:58;;;;;;;11.48;6.88;;;9.00;99.90;;;;;;4350693;28;656677;-67
2022/10/03 05:49:54;;;;;;;14.37;6.90;;;9.10;99.90;;;;;;4349257;28;657727;-68
2022/10/03 05:52:53;;;;;;;10.97;5.33;;;9.10;99.90;;;;;;4350806;28;656928;-67
2022/10/03 05:55:46;;;;;;;14.03;6.10;;;9.10;99.90;;;;;;4329977;28;656856;-68
2022/10/03 05:59:14;;;;;;;18.03;6.77;;;9.10;99.90;;;;;;4347909;28;658003;-68
2022/10/03 06:02:24;;;;;;;17.80;6.53;;;9.10;99.90;;;;;;4352536;28;656743;-68
2022/10/03 06:05:17;;;;;;;16.03;6.70;;;9.10;99.90;;;;;;4327269;28;658392;-68
2022/10/03 06:08:21;;;;;;;16.63;6.77;;;9.00;99.90;;;;;;4343160;28;656513;-68
2022/10/03 06:11:18;;;;;;;15.73;6.17;;;9.00;99.90;;;;;;4346018;28;657311;-68
2022/10/03 06:14:22;;;;;;;26.67;7.60;;;9.00;99.90;;;;;;4335817;28;656814;-68
2022/10/03 06:17:23;;;;;;;20.30;8.30;;;9.00;99.90;;;;;;4346906;28;656604;-68
2022/10/03 06:20:27;;;;;;;19.90;6.63;;;9.00;99.90;;;;;;4334382;28;657481;-68
2022/10/03 06:23:27;;;;;;;24.17;7.43;;;9.00;99.90;;;;;;4346090;28;657443;-68
2022/10/03 06:26:46;;;;;;;18.07;7.67;;;9.00;99.90;;;;;;4352563;28;658721;-68
2022/10/03 06:30:10;;;;;;;15.30;6.73;;;9.10;99.90;;;;;;4340629;28;657822;-67
2022/10/03 06:33:24;;;;;;;12.73;5.20;;;9.10;99.90;;;;;;4347692;28;657067;-68
2022/10/03 06:36:31;;;;;;;18.87;6.23;;;9.10;99.90;;;;;;4350188;28;656679;-68
2022/10/03 06:39:48;;;;;;;7.57;3.20;;;9.00;99.90;;;;;;4346026;28;658552;-68
2022/10/03 06:43:02;;;;;;;10.73;5.43;;;9.10;99.90;;;;;;4350301;28;656045;-68
2022/10/03 06:46:18;;;;;;;12.67;6.90;;;9.00;99.90;;;;;;4347809;28;656390;-68
2022/10/03 06:49:29;;;;;;;7.07;3.67;;;9.00;99.90;;;;;;4336259;28;656451;-68
2022/10/03 06:52:28;;;;;;;20.13;6.30;;;9.10;99.90;;;;;;4353199;28;655485;-69
2022/10/03 06:55:50;;;;;;;18.57;7.53;;;9.10;99.90;;;;;;4331219;28;656186;-69
2022/10/03 06:58:55;;;;;;;16.87;5.70;;;9.20;99.90;;;;;;4268702;28;656840;-68
2022/10/03 07:01:56;;;;;;;4.87;3.17;;;9.20;99.90;;;;;;4320211;28;657527;-68
2022/10/03 07:05:04;;;;;;;15.93;6.30;;;9.20;99.90;;;;;;4344801;28;655986;-68
2022/10/03 07:08:15;;;;;;;14.00;5.80;;;9.20;99.90;;;;;;4292794;28;656635;-68
2022/10/03 07:11:07;;;;;;;12.03;5.27;;;9.20;99.90;;;;;;4328069;28;657350;-68
2022/10/03 07:14:09;;;;;;;12.53;5.93;;;9.20;99.90;;;;;;4351877;28;656765;-69
2022/10/03 07:17:08;;;;;;;10.20;4.50;;;9.10;99.90;;;;;;4319286;28;657605;-68
2022/10/03 07:20:21;;;;;;;16.97;5.40;;;9.10;99.90;;;;;;4344291;28;656701;-68
2022/10/03 07:23:21;;;;;;;11.77;4.23;;;9.10;99.90;;;;;;4348371;28;656862;-68
2022/10/03 07:26:39;;;;;;;13.10;6.10;;;9.00;99.90;;;;;;4347227;28;657290;-69
2022/10/03 07:29:58;;;;;;;17.60;5.47;;;9.10;99.90;;;;;;4328623;28;656623;-68
2022/10/03 07:33:20;;;;;;;14.17;5.13;;;9.10;99.90;;;;;;4348013;28;657014;-68
2022/10/03 07:39:55;;;;;;;11.90;4.97;;;9.20;99.90;;;;;;4298004;28;658056;-69
2022/10/03 07:43:27;;;;;;;15.50;5.93;;;9.30;99.90;;;;;;4324789;28;658036;-68
2022/10/03 07:46:40;;;;;;;9.10;4.77;;;9.30;99.90;;;;;;4303993;28;656246;-68
2022/10/03 07:49:50;;;;;;;21.87;5.80;;;9.30;99.90;;;;;;4341090;28;656295;-69
2022/10/03 07:52:53;;;;;;;17.47;5.73;;;9.20;99.90;;;;;;4321648;28;657941;-68
2022/10/03 07:55:55;;;;;;;19.73;5.70;;;9.10;99.90;;;;;;4332404;28;656591;-67
2022/10/03 07:58:57;;;;;;;20.77;5.83;;;9.20;99.90;;;;;;4350096;28;656661;-68
2022/10/03 08:01:52;;;;;;;17.30;5.80;;;9.20;99.90;;;;;;4349488;28;656847;-68
2022/10/03 08:05:00;;;;;;;19.30;5.73;;;9.20;99.90;;;;;;4343620;28;656921;-68
2022/10/03 08:07:57;;;;;;;14.43;5.27;;;9.20;99.90;;;;;;4325598;28;657494;-67
2022/10/03 08:10:59;;;;;;;10.33;4.00;;;9.30;99.90;;;;;;4346583;28;656847;-68
2022/10/03 08:14:09;;;;;;;18.70;5.67;;;9.50;99.90;;;;;;4324133;28;657484;-68
2022/10/03 08:17:25;;;;;;;13.23;4.73;;;9.50;99.90;;;;;;4315521;28;657347;-68
2022/10/03 08:20:32;;;;;;;15.98;4.80;;;9.60;99.90;;;;;;4352370;28;656974;-68
2022/10/03 08:23:59;;;;;;;12.73;4.30;;;9.60;99.90;;;;;;4344565;28;657561;-68
2022/10/03 08:27:03;;;;;;;15.10;4.90;;;9.50;99.90;;;;;;4346557;28;656550;-68
2022/10/03 08:30:20;;;;;;;10.93;4.93;;;9.40;99.90;;;;;;4328309;28;656372;-68
2022/10/03 08:33:33;;;;;;;12.20;5.20;;;9.50;99.90;;;;;;4318383;28;656617;-69
2022/10/03 08:37:02;;;;;;;14.90;4.82;;;9.50;99.90;;;;;;4332950;28;656769;-67
2022/10/03 08:40:01;;;;;;;12.70;4.53;;;9.60;99.90;;;;;;4321354;28;656931;-68
2022/10/03 08:43:22;;;;;;;8.77;3.13;;;9.50;99.90;;;;;;4329028;28;657212;-67
2022/10/03 08:46:31;;;;;;;17.10;5.05;;;9.60;99.90;;;;;;4306842;28;655468;-68
2022/10/03 08:49:36;;;;;;;12.90;5.37;;;9.50;99.90;;;;;;4331293;28;657026;-67
2022/10/03 08:52:30;;;;;;;17.90;5.40;;;9.60;99.90;;;;;;4326409;28;656440;-68
2022/10/03 08:55:42;;;;;;;7.63;3.50;;;9.80;99.90;;;;;;4309020;28;656415;-68
2022/10/03 08:58:45;;;;;;;14.00;5.00;;;9.90;99.90;;;;;;4327494;28;655403;-67
2022/10/03 09:01:37;;;;;;;13.67;4.37;;;9.80;99.90;;;;;;4306509;28;657879;-68
2022/10/03 09:05:10;;;;;;;7.17;3.00;;;9.70;99.90;;;;;;4320420;28;657273;-68
2022/10/03 09:08:30;;;;;;;9.05;3.50;;;9.70;99.90;;;;;;4333912;28;655386;-67
2022/10/03 09:11:42;;;;;;;8.70;3.13;;;9.60;99.90;;;;;;4307695;28;656879;-68
2022/10/03 09:15:05;;;;;;;9.67;4.10;;;9.50;99.90;;;;;;4332101;28;655676;-68
2022/10/03 09:18:07;;;;;;;8.83;3.83;;;9.50;99.90;;;;;;4313160;28;656647;-67
2022/10/03 09:21:15;;;;;;;14.20;5.57;;;9.80;99.90;;;;;;4332275;28;655995;-68
2022/10/03 09:24:33;;;;;;;12.67;5.30;;;9.80;99.90;;;;;;4306966;28;657242;-67
2022/10/03 09:27:39;;;;;;;11.13;5.37;;;9.80;99.90;;;;;;4345315;28;656516;-68
2022/10/03 09:30:33;;;;;;;9.43;5.03;;;9.90;99.90;;;;;;4336226;28;656518;-68
2022/10/03 09:33:56;;;;;;;9.07;5.20;;;9.80;99.90;;;;;;4318307;28;655883;-68
2022/10/03 09:37:10;;;;;;;7.17;3.70;;;9.90;99.90;;;;;;4334458;28;656227;-68
2022/10/03 09:40:16;;;;;;;12.27;4.57;;;10.10;99.90;;;;;;4306264;28;656214;-68
2022/10/03 09:43:40;;;;;;;9.13;4.93;;;10.20;99.90;;;;;;4329970;28;658383;-68
2022/10/03 09:46:37;;;;;;;11.48;5.18;;;10.10;99.90;;;;;;4335545;28;656517;-69
2022/10/03 09:49:32;;;;;;;14.30;5.27;;;10.10;99.90;;;;;;4328981;28;657228;-68
2022/10/03 09:52:26;;;;;;;6.87;3.37;;;10.20;99.90;;;;;;4330521;28;658091;-68
2022/10/03 09:55:28;;;;;;;11.30;4.43;;;10.30;99.90;;;;;;4330710;28;656946;-70
2022/10/03 09:58:39;;;;;;;11.07;4.53;;;10.20;99.90;;;;;;4312544;28;658254;-68
2022/10/03 10:01:28;;;;;;;14.37;5.97;;;10.20;99.90;;;;;;4334777;28;658068;-69
2022/10/03 10:04:55;;;;;;;15.23;4.87;;;10.10;99.90;;;;;;4335035;28;657568;-69
2022/10/03 10:08:04;;;;;;;11.73;5.03;;;10.10;99.90;;;;;;4312813;28;658075;-69
2022/10/03 10:10:58;;;;;;;8.77;4.20;;;10.10;99.90;;;;;;4335325;28;657431;-68
2022/10/03 10:14:16;;;;;;;6.40;2.97;;;10.00;99.90;;;;;;4307276;28;656795;-68
2022/10/03 10:17:31;;;;;;;7.20;4.03;;;10.00;99.90;;;;;;4336854;28;658118;-69
2022/10/03 10:20:34;;;;;;;7.27;3.70;;;10.00;99.90;;;;;;4335607;28;657219;-68
2022/10/03 10:23:36;;;;;;;9.10;3.50;;;10.00;99.90;;;;;;4333482;28;656764;-69
2022/10/03 10:26:46;;;;;;;8.77;3.47;;;10.00;99.90;;;;;;4329163;28;657261;-69
2022/10/03 10:29:58;;;;;;;5.97;2.90;;;10.00;99.90;;;;;;4331097;28;657370;-68
2022/10/03 10:33:23;;;;;;;10.97;3.40;;;10.10;99.90;;;;;;4308640;28;656918;-69
2022/10/03 10:36:32;;;;;;;5.97;3.43;;;10.00;99.90;;;;;;4329163;28;657185;-69
2022/10/03 10:39:47;;;;;;;4.77;3.20;;;9.90;99.90;;;;;;4348167;28;656258;-69
2022/10/03 10:43:22;;;;;;;9.70;3.57;;;9.90;99.90;;;;;;4368435;28;655308;-69
2022/10/03 10:46:34;;;;;;;10.13;3.27;;;9.90;99.90;;;;;;4350722;28;656161;-69
2022/10/03 10:49:57;;;;;;;7.90;3.00;;;9.80;99.90;;;;;;4345955;28;656862;-70
2022/10/03 10:53:06;;;;;;;8.73;2.40;;;9.80;99.90;;;;;;4348186;28;655966;-69
2022/10/03 10:56:26;;;;;;;6.77;2.67;;;9.80;99.90;;;;;;4347928;28;655714;-68
2022/10/03 10:59:52;;;;;;;7.60;2.53;;;9.80;99.90;;;;;;4349801;28;656527;-68
2022/10/03 11:03:14;;;;;;;3.60;2.40;;;9.80;99.90;;;;;;4350637;28;656878;-69
2022/10/03 11:06:56;;;;;;;3.60;1.83;;;9.80;99.90;;;;;;4327429;28;656477;-67
2022/10/03 11:10:21;;;;;;;4.70;2.73;;;9.80;99.90;;;;;;4347265;28;656331;-68
2022/10/03 11:13:51;;;;;;;6.93;2.50;;;10.00;99.90;;;;;;4351443;28;656327;-67
2022/10/03 11:17:14;;;;;;;7.37;2.43;;;9.90;99.90;;;;;;4289533;28;656935;-67
2022/10/03 11:20:20;;;;;;;2.70;1.07;;;10.00;99.90;;;;;;4324639;28;657940;-67
2022/10/03 11:23:28;;;;;;;4.67;2.23;;;9.90;99.90;;;;;;4325262;28;657804;-68
2022/10/03 11:26:39;;;;;;;4.47;1.77;;;9.90;99.90;;;;;;4325426;28;655427;-68
2022/10/03 11:29:58;;;;;;;4.40;2.43;;;9.80;99.90;;;;;;4327105;28;655857;-68
2022/10/03 11:33:21;;;;;;;5.90;2.20;;;9.80;99.90;;;;;;4340453;28;655481;-68
2022/10/03 11:36:39;;;;;;;5.97;1.90;;;9.80;99.90;;;;;;4352558;28;656051;-68
2022/10/03 11:39:32;;;;;;;4.80;1.30;;;9.80;99.90;;;;;;4330091;28;655386;-68
2022/10/03 11:42:24;;;;;;;2.67;1.10;;;9.90;99.90;;;;;;4343370;28;655764;-68
2022/10/03 11:45:16;;;;;;;4.43;1.87;;;9.80;99.90;;;;;;4330417;28;656708;-68
2022/10/03 11:48:13;;;;;;;8.80;2.10;;;9.90;99.90;;;;;;4348499;28;657212;-68
2022/10/03 11:51:00;;;;;;;6.67;2.20;;;9.80;99.90;;;;;;4326602;28;656193;-68
2022/10/03 11:53:48;;;;;;;3.27;1.50;;;9.90;99.90;;;;;;4364849;28;656803;-67
2022/10/03 11:56:38;;;;;;;2.90;1.83;;;10.10;99.90;;;;;;4353004;28;655400;-69
2022/10/03 11:59:40;;;;;;;3.77;2.10;;;10.20;99.90;;;;;;4342501;28;656458;-69
2022/10/03 12:02:50;;;;;;;5.07;2.33;;;10.20;99.90;;;;;;4346257;28;656401;-68
2022/10/03 12:05:46;;;;;;;4.03;2.50;;;10.20;99.90;;;;;;4338191;28;656793;-68
2022/10/03 12:11:44;;;;;;;4.67;2.50;;;10.00;99.90;;;;;;4329508;28;656400;-68
2022/10/03 12:14:33;;;;;;;3.60;2.20;;;10.10;99.90;;;;;;4346575;28;656717;-69
2022/10/03 12:17:24;;;;;;;5.70;2.65;;;9.90;99.90;;;;;;4341356;28;656594;-69
2022/10/03 12:20:17;;;;;;;5.53;1.77;;;9.90;99.90;;;;;;4346621;28;655671;-68
2022/10/03 12:23:08;;;;;;;2.83;1.93;;;9.90;99.90;;;;;;4344834;28;656163;-68
2022/10/03 12:25:55;;;;;;;4.07;2.40;;;10.10;99.90;;;;;;4327826;28;655652;-70
2022/10/03 12:28:44;;;;;;;7.57;1.60;;;10.10;99.90;;;;;;4369761;28;657629;-69
2022/10/03 12:31:35;;;;;;;3.93;2.07;;;10.20;99.90;;;;;;4349161;28;657263;-69
2022/10/03 12:34:33;;;;;;;3.87;1.63;;;10.20;99.90;;;;;;4350001;28;656759;-68
2022/10/03 12:37:32;;;;;;;5.73;2.23;;;10.30;99.90;;;;;;4347183;28;656872;-68
2022/10/03 12:40:23;;;;;;;4.03;1.83;;;10.20;99.90;;;;;;4350237;28;656693;-69
2022/10/03 12:43:20;;;;;;;5.83;1.93;;;10.20;99.90;;;;;;4339020;28;656962;-68
2022/10/03 12:46:12;;;;;;;4.60;2.30;;;10.10;99.90;;;;;;4323014;28;657130;-68
2022/10/03 12:49:01;;;;;;;4.53;2.40;;;10.10;99.90;;;;;;4344225;28;656810;-69
2022/10/03 12:51:52;;;;;;;3.57;2.07;;;10.10;99.90;;;;;;4348847;28;656396;-68
2022/10/03 12:54:45;;;;;;;8.90;2.60;;;10.10;99.90;;;;;;4345455;28;656518;-68
2022/10/03 12:57:53;;;;;;;4.43;2.13;;;10.10;99.90;;;;;;4325700;28;657038;-68
2022/10/03 13:00:44;;;;;;;5.53;2.20;;;10.20;99.90;;;;;;4333775;28;657355;-68
2022/10/03 13:03:37;;;;;;;5.53;2.15;;;10.30;99.90;;;;;;4344571;28;656655;-68
2022/10/03 13:06:45;;;;;;;3.90;2.33;;;10.20;99.90;;;;;;4345971;28;657361;-68
2022/10/03 13:10:03;;;;;;;2.33;1.53;;;10.30;99.90;;;;;;4329053;28;657517;-67
2022/10/03 13:12:53;;;;;;;4.77;2.37;;;10.40;99.90;;;;;;4322760;28;656644;-67
2022/10/03 13:16:08;;;;;;;5.87;2.33;;;10.30;99.90;;;;;;4350210;28;656914;-68
2022/10/03 13:18:59;;;;;;;8.75;2.55;;;10.40;99.90;;;;;;4325222;28;657336;-68
2022/10/03 13:21:54;;;;;;;4.63;2.10;;;10.70;99.90;;;;;;4353274;28;656975;-67
2022/10/03 13:24:42;;;;;;;6.60;1.63;;;10.80;99.90;;;;;;4329585;28;657166;-68
2022/10/03 13:27:34;;;;;;;5.50;2.53;;;10.70;99.90;;;;;;4372808;28;657170;-68
2022/10/03 13:30:22;;;;;;;11.23;3.00;;;10.60;99.90;;;;;;4323636;28;657659;-68
2022/10/03 13:33:12;;;;;;;6.70;2.80;;;10.60;99.90;;;;;;4360140;28;657431;-68
2022/10/03 13:36:01;;;;;;;8.10;3.43;;;10.50;99.90;;;;;;4373710;28;656784;-68
2022/10/03 13:39:01;;;;;;;6.50;2.90;;;10.40;99.90;;;;;;4348572;28;657337;-68
2022/10/03 13:41:59;;;;;;;7.93;2.90;;;10.40;99.90;;;;;;4343972;28;656646;-68
2022/10/03 13:44:51;;;;;;;4.43;3.13;;;10.50;99.90;;;;;;4323643;28;658475;-68
2022/10/03 13:47:43;;;;;;;4.30;2.50;;;10.60;99.90;;;;;;4344970;28;658724;-68
2022/10/03 13:50:35;;;;;;;6.03;3.70;;;10.70;99.90;;;;;;4332836;28;656245;-68
2022/10/03 13:53:42;;;;;;;7.33;2.47;;;10.80;99.90;;;;;;4347656;28;658589;-68
2022/10/03 13:56:48;;;;;;;8.63;3.50;;;10.70;99.90;;;;;;4344366;28;656289;-68
2022/10/03 13:59:56;;;;;;;7.33;3.40;;;10.60;99.90;;;;;;4328448;28;656410;-68
2022/10/03 14:02:49;;;;;;;6.17;3.67;;;10.50;99.90;;;;;;4348803;28;657768;-68
2022/10/03 14:05:50;;;;;;;8.07;3.53;;;10.50;99.90;;;;;;4348663;28;656780;-68
2022/10/03 14:08:50;;;;;;;9.77;3.20;;;10.40;99.90;;;;;;4353396;28;656768;-68
2022/10/03 14:11:41;;;;;;;7.47;3.20;;;10.50;99.90;;;;;;4323733;28;658617;-68
2022/10/03 14:14:38;;;;;;;7.77;3.63;;;10.40;99.90;;;;;;4348718;28;658115;-68
2022/10/03 14:17:29;;;;;;;8.23;3.53;;;10.50;99.90;;;;;;4327232;28;656331;-68
2022/10/03 14:20:25;;;;;;;3.43;1.83;;;10.60;99.90;;;;;;4353080;28;656832;-67
2022/10/03 14:23:19;;;;;;;7.33;3.40;;;10.60;99.90;;;;;;4323797;28;657400;-68
2022/10/03 14:26:12;;;;;;;5.83;2.90;;;11.30;99.90;;;;;;4326638;28;656588;-67
2022/10/03 14:29:00;;;;;;;7.17;3.10;;;12.00;99.90;;;;;;4342206;28;657426;-68
2022/10/03 14:31:51;;;;;;;6.20;3.10;;;13.20;99.90;;;;;;4349270;28;657128;-69
2022/10/03 14:34:45;;;;;;;6.93;3.07;;;14.80;99.90;;;;;;4349653;28;657937;-68
2022/10/03 14:37:39;;;;;;;5.43;3.27;;;13.60;99.90;;;;;;4324946;28;656682;-68
2022/10/03 14:40:30;;;;;;;6.00;2.40;;;12.90;99.90;;;;;;4350239;28;656744;-68
2022/10/03 14:43:33;;;;;;;5.63;2.37;;;16.40;99.90;;;;;;4346525;28;656956;-69
2022/10/03 14:46:20;;;;;;;3.72;2.22;;;16.20;99.90;;;;;;4351927;28;656963;-69
2022/10/03 14:49:10;;;;;;;3.93;1.83;;;17.60;99.90;;;;;;4372565;28;658384;-68
2022/10/03 14:51:59;;;;;;;3.43;2.30;;;15.50;99.90;;;;;;4353107;28;656638;-68
2022/10/03 14:54:46;;;;;;;5.55;2.40;;;15.80;99.90;;;;;;4350967;28;656612;-68
2022/10/03 14:57:35;;;;;;;4.80;2.53;;;16.60;99.90;;;;;;4366040;28;657508;-69
2022/10/03 15:00:37;;;;;;;4.57;2.50;;;16.40;99.90;;;;;;4347607;28;658187;-68
2022/10/03 15:03:29;;;;;;;5.47;2.63;;;15.90;99.90;;;;;;4354566;28;657040;-68
2022/10/03 15:06:21;;;;;;;6.67;2.83;;;14.70;99.90;;;;;;4349073;28;656531;-71
2022/10/03 15:09:10;;;;;;;9.67;3.50;;;12.40;99.90;;;;;;4349846;28;657523;-72
2022/10/03 15:12:01;;;;;;;7.33;3.37;;;11.50;99.90;;;;;;4350013;28;657782;-71
2022/10/03 15:14:53;;;;;;;6.43;3.17;;;11.00;99.90;;;;;;4349772;28;657041;-71
2022/10/03 15:17:46;;;;;;;8.33;3.60;;;10.90;99.90;;;;;;4326347;28;656991;-71
2022/10/03 15:20:35;;;;;;;10.73;3.40;;;10.60;99.90;;;;;;4349520;28;657320;-71
2022/10/03 15:23:26;;;;;;;10.20;3.73;;;10.40;99.90;;;;;;4349118;28;659092;-71
2022/10/03 15:26:15;;;;;;;10.10;3.30;;;10.40;99.90;;;;;;4347824;28;658257;-70
2022/10/03 15:29:04;;;;;;;8.33;3.97;;;10.50;99.90;;;;;;4346633;28;659179;-71
2022/10/03 15:31:51;;;;;;;9.10;4.10;;;10.50;99.90;;;;;;4349833;28;656642;-71
2022/10/03 15:34:40;;;;;;;9.30;3.80;;;10.40;99.90;;;;;;4367735;28;656325;-71
2022/10/03 15:37:32;;;;;;;10.10;4.37;;;10.40;99.90;;;;;;4348582;28;657306;-71
2022/10/03 15:40:23;;;;;;;8.90;3.63;;;10.50;99.90;;;;;;4346988;28;658417;-71